Terminal Aerodrome Forecast
Issued by NWS

Home | Current Version | Previous Version | Graphics & Text | Print | Product List | Glossary Off
Versions: 1 2 3 4 5 6 7 8 9 10 11 12 13 14 15 16 17 18 19 20 21 22 23 24 25 26 27 28 29 30 31

000
FTUS43 KDDC 281125
TAFHYS
TAF
KHYS 281125Z 2812/0112 16008KT 3SM -SN BR BKN025
      TEMPO 2812/2815 2SM -SN BR SCT015 BKN025
     FM281500 17010KT P6SM -SN OVC022
     FM010000 13007KT 4SM BR OVC012=

USA.gov is the U.S. government's official web portal to all federal, state and local government web resources and services.